sensor_id;sensor_type;location;lat;lon;timestamp;P1;durP1;ratioP1;P2;durP2;ratioP2
13868;SDS011;7004;48.206;16.402;2023-12-20T00:01:42;30.83;;;21.97;;
13868;SDS011;7004;48.206;16.402;2023-12-20T00:04:09;31.17;;;22.23;;
13868;SDS011;7004;48.206;16.402;2023-12-20T00:06:36;33.90;;;22.03;;
13868;SDS011;7004;48.206;16.402;2023-12-20T00:09:02;33.57;;;22.63;;
13868;SDS011;7004;48.206;16.402;2023-12-20T00:11:28;35.87;;;21.90;;
13868;SDS011;7004;48.206;16.402;2023-12-20T00:13:54;35.63;;;23.17;;
13868;SDS011;7004;48.206;16.402;2023-12-20T00:16:21;35.20;;;23.10;;
13868;SDS011;7004;48.206;16.402;2023-12-20T00:18:47;33.17;;;22.50;;
13868;SDS011;7004;48.206;16.402;2023-12-20T00:21:14;34.97;;;23.13;;
13868;SDS011;7004;48.206;16.402;2023-12-20T00:23:40;32.90;;;22.90;;
13868;SDS011;7004;48.206;16.402;2023-12-20T00:26:06;33.37;;;23.13;;
13868;SDS011;7004;48.206;16.402;2023-12-20T00:28:32;32.90;;;22.23;;
13868;SDS011;7004;48.206;16.402;2023-12-20T00:30:58;35.17;;;22.37;;
13868;SDS011;7004;48.206;16.402;2023-12-20T00:33:24;34.07;;;22.17;;
13868;SDS011;7004;48.206;16.402;2023-12-20T00:35:50;31.47;;;21.40;;
13868;SDS011;7004;48.206;16.402;2023-12-20T00:38:16;33.20;;;22.57;;
13868;SDS011;7004;48.206;16.402;2023-12-20T00:40:42;29.70;;;21.00;;
13868;SDS011;7004;48.206;16.402;2023-12-20T00:43:08;30.30;;;22.00;;
13868;SDS011;7004;48.206;16.402;2023-12-20T00:45:34;30.20;;;21.40;;
13868;SDS011;7004;48.206;16.402;2023-12-20T00:48:00;30.30;;;21.60;;
13868;SDS011;7004;48.206;16.402;2023-12-20T00:50:26;31.60;;;21.53;;
13868;SDS011;7004;48.206;16.402;2023-12-20T00:52:53;34.10;;;21.67;;
13868;SDS011;7004;48.206;16.402;2023-12-20T00:55:20;32.20;;;21.70;;
13868;SDS011;7004;48.206;16.402;2023-12-20T00:57:46;33.20;;;21.33;;
13868;SDS011;7004;48.206;16.402;2023-12-20T01:00:12;31.73;;;21.60;;
13868;SDS011;7004;48.206;16.402;2023-12-20T01:02:39;33.83;;;22.97;;
13868;SDS011;7004;48.206;16.402;2023-12-20T01:05:11;31.33;;;21.33;;
13868;SDS011;7004;48.206;16.402;2023-12-20T01:07:43;32.90;;;22.17;;
13868;SDS011;7004;48.206;16.402;2023-12-20T01:10:14;32.30;;;21.10;;
13868;SDS011;7004;48.206;16.402;2023-12-20T01:12:45;32.80;;;22.47;;
13868;SDS011;7004;48.206;16.402;2023-12-20T01:15:14;29.40;;;20.53;;
13868;SDS011;7004;48.206;16.402;2023-12-20T01:17:43;36.13;;;20.77;;
13868;SDS011;7004;48.206;16.402;2023-12-20T01:20:13;29.00;;;19.50;;
13868;SDS011;7004;48.206;16.402;2023-12-20T01:22:46;32.90;;;21.80;;
13868;SDS011;7004;48.206;16.402;2023-12-20T01:25:19;35.73;;;21.80;;
13868;SDS011;7004;48.206;16.402;2023-12-20T01:27:49;33.63;;;22.23;;
13868;SDS011;7004;48.206;16.402;2023-12-20T01:30:28;31.93;;;22.27;;
13868;SDS011;7004;48.206;16.402;2023-12-20T01:32:59;37.07;;;22.90;;
13868;SDS011;7004;48.206;16.402;2023-12-20T01:35:28;33.17;;;22.47;;
13868;SDS011;7004;48.206;16.402;2023-12-20T01:37:55;33.23;;;21.80;;
13868;SDS011;7004;48.206;16.402;2023-12-20T01:40:24;34.80;;;22.73;;
13868;SDS011;7004;48.206;16.402;2023-12-20T01:43:01;34.00;;;23.17;;
13868;SDS011;7004;48.206;16.402;2023-12-20T01:45:38;37.30;;;22.83;;
13868;SDS011;7004;48.206;16.402;2023-12-20T01:48:08;35.03;;;22.90;;
13868;SDS011;7004;48.206;16.402;2023-12-20T01:50:43;38.17;;;24.30;;
13868;SDS011;7004;48.206;16.402;2023-12-20T01:53:12;35.67;;;23.00;;
13868;SDS011;7004;48.206;16.402;2023-12-20T01:55:44;33.53;;;23.30;;
13868;SDS011;7004;48.206;16.402;2023-12-20T01:58:18;32.83;;;22.47;;
13868;SDS011;7004;48.206;16.402;2023-12-20T02:00:49;35.70;;;23.90;;
13868;SDS011;7004;48.206;16.402;2023-12-20T02:03:18;35.83;;;22.83;;
13868;SDS011;7004;48.206;16.402;2023-12-20T02:05:52;33.07;;;22.23;;
13868;SDS011;7004;48.206;16.402;2023-12-20T02:08:18;33.43;;;23.10;;
13868;SDS011;7004;48.206;16.402;2023-12-20T02:10:44;36.70;;;23.27;;
13868;SDS011;7004;48.206;16.402;2023-12-20T02:13:11;35.13;;;23.77;;
13868;SDS011;7004;48.206;16.402;2023-12-20T02:15:37;37.23;;;23.43;;
13868;SDS011;7004;48.206;16.402;2023-12-20T02:18:07;32.47;;;21.20;;
13868;SDS011;7004;48.206;16.402;2023-12-20T02:20:33;34.30;;;22.20;;
13868;SDS011;7004;48.206;16.402;2023-12-20T02:23:01;32.30;;;20.90;;
13868;SDS011;7004;48.206;16.402;2023-12-20T02:25:28;30.90;;;21.73;;
13868;SDS011;7004;48.206;16.402;2023-12-20T02:27:54;31.90;;;21.97;;
13868;SDS011;7004;48.206;16.402;2023-12-20T02:30:21;36.23;;;22.90;;
13868;SDS011;7004;48.206;16.402;2023-12-20T02:32:48;36.63;;;23.20;;
13868;SDS011;7004;48.206;16.402;2023-12-20T02:35:17;36.70;;;22.43;;
13868;SDS011;7004;48.206;16.402;2023-12-20T02:37:44;33.43;;;22.73;;
13868;SDS011;7004;48.206;16.402;2023-12-20T02:40:10;34.20;;;22.77;;
13868;SDS011;7004;48.206;16.402;2023-12-20T02:42:37;32.10;;;21.97;;
13868;SDS011;7004;48.206;16.402;2023-12-20T02:45:03;32.10;;;22.17;;
13868;SDS011;7004;48.206;16.402;2023-12-20T02:47:29;32.83;;;21.80;;
13868;SDS011;7004;48.206;16.402;2023-12-20T02:49:56;34.00;;;22.73;;
13868;SDS011;7004;48.206;16.402;2023-12-20T02:52:23;33.70;;;23.17;;
13868;SDS011;7004;48.206;16.402;2023-12-20T02:54:50;33.30;;;22.27;;
13868;SDS011;7004;48.206;16.402;2023-12-20T02:57:16;31.73;;;21.60;;
13868;SDS011;7004;48.206;16.402;2023-12-20T02:59:42;31.20;;;21.43;;
13868;SDS011;7004;48.206;16.402;2023-12-20T03:02:08;33.07;;;22.00;;
13868;SDS011;7004;48.206;16.402;2023-12-20T03:04:34;32.50;;;22.60;;
13868;SDS011;7004;48.206;16.402;2023-12-20T03:07:01;30.70;;;20.87;;
13868;SDS011;7004;48.206;16.402;2023-12-20T03:09:29;31.70;;;21.67;;
13868;SDS011;7004;48.206;16.402;2023-12-20T03:11:55;31.03;;;21.17;;
13868;SDS011;7004;48.206;16.402;2023-12-20T03:14:21;30.57;;;21.97;;
13868;SDS011;7004;48.206;16.402;2023-12-20T03:16:51;30.60;;;20.40;;
13868;SDS011;7004;48.206;16.402;2023-12-20T03:19:17;32.60;;;21.60;;
13868;SDS011;7004;48.206;16.402;2023-12-20T03:21:46;31.40;;;21.77;;
13868;SDS011;7004;48.206;16.402;2023-12-20T03:24:12;32.80;;;21.43;;
13868;SDS011;7004;48.206;16.402;2023-12-20T03:26:38;32.57;;;21.13;;
13868;SDS011;7004;48.206;16.402;2023-12-20T03:29:05;30.17;;;20.77;;
13868;SDS011;7004;48.206;16.402;2023-12-20T03:31:31;32.43;;;21.03;;
13868;SDS011;7004;48.206;16.402;2023-12-20T03:33:57;28.90;;;19.97;;
13868;SDS011;7004;48.206;16.402;2023-12-20T03:36:24;28.63;;;20.37;;
13868;SDS011;7004;48.206;16.402;2023-12-20T03:38:50;34.70;;;22.50;;
13868;SDS011;7004;48.206;16.402;2023-12-20T03:41:16;33.27;;;22.00;;
13868;SDS011;7004;48.206;16.402;2023-12-20T03:43:42;31.43;;;21.23;;
13868;SDS011;7004;48.206;16.402;2023-12-20T03:46:09;30.43;;;22.13;;
13868;SDS011;7004;48.206;16.402;2023-12-20T03:48:35;30.57;;;22.23;;
13868;SDS011;7004;48.206;16.402;2023-12-20T03:51:02;31.57;;;21.87;;
13868;SDS011;7004;48.206;16.402;2023-12-20T03:53:28;32.60;;;23.17;;
13868;SDS011;7004;48.206;16.402;2023-12-20T03:55:54;29.50;;;21.80;;
13868;SDS011;7004;48.206;16.402;2023-12-20T03:58:20;29.90;;;22.37;;
13868;SDS011;7004;48.206;16.402;2023-12-20T04:00:47;32.97;;;22.13;;
13868;SDS011;7004;48.206;16.402;2023-12-20T04:03:13;30.60;;;21.80;;
13868;SDS011;7004;48.206;16.402;2023-12-20T04:05:40;34.33;;;22.90;;
13868;SDS011;7004;48.206;16.402;2023-12-20T04:08:07;31.97;;;22.50;;
13868;SDS011;7004;48.206;16.402;2023-12-20T04:10:37;30.83;;;21.63;;
13868;SDS011;7004;48.206;16.402;2023-12-20T04:13:04;33.57;;;22.73;;
13868;SDS011;7004;48.206;16.402;2023-12-20T04:15:30;28.83;;;21.23;;
13868;SDS011;7004;48.206;16.402;2023-12-20T04:17:56;31.50;;;21.23;;
13868;SDS011;7004;48.206;16.402;2023-12-20T04:20:22;30.90;;;21.33;;
13868;SDS011;7004;48.206;16.402;2023-12-20T04:22:48;31.57;;;22.43;;
13868;SDS011;7004;48.206;16.402;2023-12-20T04:25:14;28.50;;;21.37;;
13868;SDS011;7004;48.206;16.402;2023-12-20T04:27:41;32.33;;;22.77;;
13868;SDS011;7004;48.206;16.402;2023-12-20T04:30:07;31.73;;;22.23;;
13868;SDS011;7004;48.206;16.402;2023-12-20T04:32:36;27.20;;;20.03;;
13868;SDS011;7004;48.206;16.402;2023-12-20T04:35:02;29.20;;;20.80;;
13868;SDS011;7004;48.206;16.402;2023-12-20T04:37:28;30.23;;;20.97;;
13868;SDS011;7004;48.206;16.402;2023-12-20T04:39:55;30.73;;;22.10;;
13868;SDS011;7004;48.206;16.402;2023-12-20T04:42:21;30.03;;;20.77;;
13868;SDS011;7004;48.206;16.402;2023-12-20T04:44:47;29.13;;;20.50;;
13868;SDS011;7004;48.206;16.402;2023-12-20T04:47:13;28.70;;;20.67;;
13868;SDS011;7004;48.206;16.402;2023-12-20T04:49:39;28.07;;;20.37;;
13868;SDS011;7004;48.206;16.402;2023-12-20T04:52:05;30.37;;;21.50;;
13868;SDS011;7004;48.206;16.402;2023-12-20T04:54:31;30.43;;;21.07;;
13868;SDS011;7004;48.206;16.402;2023-12-20T04:56:57;28.60;;;20.33;;
13868;SDS011;7004;48.206;16.402;2023-12-20T04:59:23;29.90;;;21.13;;
13868;SDS011;7004;48.206;16.402;2023-12-20T05:01:49;29.40;;;20.87;;
13868;SDS011;7004;48.206;16.402;2023-12-20T05:04:15;27.43;;;20.27;;
13868;SDS011;7004;48.206;16.402;2023-12-20T05:06:41;31.83;;;21.67;;
13868;SDS011;7004;48.206;16.402;2023-12-20T05:09:07;30.60;;;20.47;;
13868;SDS011;7004;48.206;16.402;2023-12-20T05:11:34;28.90;;;20.77;;
13868;SDS011;7004;48.206;16.402;2023-12-20T05:14:00;26.30;;;19.43;;
13868;SDS011;7004;48.206;16.402;2023-12-20T05:16:26;28.47;;;21.20;;
13868;SDS011;7004;48.206;16.402;2023-12-20T05:18:52;32.23;;;20.30;;
13868;SDS011;7004;48.206;16.402;2023-12-20T05:21:18;28.00;;;20.10;;
13868;SDS011;7004;48.206;16.402;2023-12-20T05:23:45;31.30;;;20.03;;
13868;SDS011;7004;48.206;16.402;2023-12-20T05:26:11;28.40;;;19.93;;
13868;SDS011;7004;48.206;16.402;2023-12-20T05:28:37;31.83;;;20.80;;
13868;SDS011;7004;48.206;16.402;2023-12-20T05:31:03;28.80;;;20.37;;
13868;SDS011;7004;48.206;16.402;2023-12-20T05:33:29;30.63;;;21.27;;
13868;SDS011;7004;48.206;16.402;2023-12-20T05:35:56;30.47;;;21.33;;
13868;SDS011;7004;48.206;16.402;2023-12-20T05:38:22;31.03;;;21.47;;
13868;SDS011;7004;48.206;16.402;2023-12-20T05:40:48;27.57;;;19.43;;
13868;SDS011;7004;48.206;16.402;2023-12-20T05:43:14;29.00;;;19.93;;
13868;SDS011;7004;48.206;16.402;2023-12-20T05:45:40;30.70;;;19.80;;
13868;SDS011;7004;48.206;16.402;2023-12-20T05:48:07;28.37;;;19.93;;
13868;SDS011;7004;48.206;16.402;2023-12-20T05:50:33;31.50;;;20.90;;
13868;SDS011;7004;48.206;16.402;2023-12-20T05:53:00;28.10;;;19.60;;
13868;SDS011;7004;48.206;16.402;2023-12-20T05:55:26;27.57;;;18.93;;
13868;SDS011;7004;48.206;16.402;2023-12-20T05:57:52;29.00;;;19.30;;
13868;SDS011;7004;48.206;16.402;2023-12-20T06:00:18;30.20;;;20.37;;
13868;SDS011;7004;48.206;16.402;2023-12-20T06:02:44;36.60;;;22.60;;
13868;SDS011;7004;48.206;16.402;2023-12-20T06:05:10;19.67;;;13.90;;
13868;SDS011;7004;48.206;16.402;2023-12-20T06:07:36;28.53;;;20.33;;
13868;SDS011;7004;48.206;16.402;2023-12-20T06:10:02;27.33;;;19.83;;
13868;SDS011;7004;48.206;16.402;2023-12-20T06:12:32;26.63;;;19.03;;
13868;SDS011;7004;48.206;16.402;2023-12-20T06:15:01;29.73;;;19.17;;
13868;SDS011;7004;48.206;16.402;2023-12-20T06:17:28;27.73;;;19.57;;
13868;SDS011;7004;48.206;16.402;2023-12-20T06:19:56;31.00;;;20.87;;
13868;SDS011;7004;48.206;16.402;2023-12-20T06:22:25;26.87;;;18.43;;
13868;SDS011;7004;48.206;16.402;2023-12-20T06:24:51;28.27;;;18.77;;
13868;SDS011;7004;48.206;16.402;2023-12-20T06:27:17;30.80;;;20.40;;
13868;SDS011;7004;48.206;16.402;2023-12-20T06:29:43;28.17;;;20.40;;
13868;SDS011;7004;48.206;16.402;2023-12-20T06:32:10;27.27;;;16.53;;
13868;SDS011;7004;48.206;16.402;2023-12-20T06:34:36;29.47;;;19.77;;
13868;SDS011;7004;48.206;16.402;2023-12-20T06:37:03;14.73;;;9.93;;
13868;SDS011;7004;48.206;16.402;2023-12-20T06:39:30;14.77;;;9.87;;
13868;SDS011;7004;48.206;16.402;2023-12-20T06:41:56;8.70;;;6.50;;
13868;SDS011;7004;48.206;16.402;2023-12-20T06:44:22;11.83;;;6.10;;
13868;SDS011;7004;48.206;16.402;2023-12-20T06:46:48;6.73;;;4.80;;
13868;SDS011;7004;48.206;16.402;2023-12-20T06:49:15;6.83;;;4.17;;
13868;SDS011;7004;48.206;16.402;2023-12-20T06:51:41;5.47;;;3.90;;
13868;SDS011;7004;48.206;16.402;2023-12-20T06:54:07;7.40;;;3.30;;
13868;SDS011;7004;48.206;16.402;2023-12-20T06:56:33;8.20;;;3.57;;
13868;SDS011;7004;48.206;16.402;2023-12-20T06:58:59;3.53;;;3.20;;
13868;SDS011;7004;48.206;16.402;2023-12-20T07:01:25;6.30;;;3.80;;
13868;SDS011;7004;48.206;16.402;2023-12-20T07:03:51;4.57;;;3.70;;
13868;SDS011;7004;48.206;16.402;2023-12-20T07:06:17;3.90;;;3.23;;
13868;SDS011;7004;48.206;16.402;2023-12-20T07:08:44;4.53;;;3.33;;
13868;SDS011;7004;48.206;16.402;2023-12-20T07:11:11;5.40;;;3.87;;
13868;SDS011;7004;48.206;16.402;2023-12-20T07:13:37;4.90;;;3.50;;
13868;SDS011;7004;48.206;16.402;2023-12-20T07:16:03;5.57;;;3.23;;
13868;SDS011;7004;48.206;16.402;2023-12-20T07:18:29;6.80;;;3.90;;
13868;SDS011;7004;48.206;16.402;2023-12-20T07:20:55;6.90;;;3.40;;
13868;SDS011;7004;48.206;16.402;2023-12-20T07:23:22;6.50;;;3.37;;
13868;SDS011;7004;48.206;16.402;2023-12-20T07:25:49;4.60;;;3.20;;
13868;SDS011;7004;48.206;16.402;2023-12-20T07:28:15;4.70;;;3.60;;
13868;SDS011;7004;48.206;16.402;2023-12-20T07:30:41;5.27;;;3.50;;
13868;SDS011;7004;48.206;16.402;2023-12-20T07:33:07;6.17;;;3.90;;
13868;SDS011;7004;48.206;16.402;2023-12-20T07:35:34;5.00;;;3.80;;
13868;SDS011;7004;48.206;16.402;2023-12-20T07:38:00;6.20;;;4.13;;
13868;SDS011;7004;48.206;16.402;2023-12-20T07:40:28;5.17;;;3.90;;
13868;SDS011;7004;48.206;16.402;2023-12-20T07:42:54;5.17;;;4.07;;
13868;SDS011;7004;48.206;16.402;2023-12-20T07:45:20;5.83;;;4.20;;
13868;SDS011;7004;48.206;16.402;2023-12-20T07:47:46;6.77;;;4.60;;
13868;SDS011;7004;48.206;16.402;2023-12-20T07:50:12;5.80;;;4.10;;
13868;SDS011;7004;48.206;16.402;2023-12-20T07:52:39;4.90;;;3.60;;
13868;SDS011;7004;48.206;16.402;2023-12-20T07:55:06;8.37;;;3.80;;
13868;SDS011;7004;48.206;16.402;2023-12-20T07:57:33;6.20;;;4.30;;
13868;SDS011;7004;48.206;16.402;2023-12-20T07:59:59;7.17;;;4.80;;
13868;SDS011;7004;48.206;16.402;2023-12-20T08:02:25;7.47;;;4.60;;
13868;SDS011;7004;48.206;16.402;2023-12-20T08:04:51;8.20;;;4.20;;
13868;SDS011;7004;48.206;16.402;2023-12-20T08:07:18;5.77;;;4.20;;
13868;SDS011;7004;48.206;16.402;2023-12-20T08:09:44;6.43;;;4.50;;
13868;SDS011;7004;48.206;16.402;2023-12-20T08:12:11;7.77;;;4.10;;
13868;SDS011;7004;48.206;16.402;2023-12-20T08:14:37;5.17;;;3.30;;
13868;SDS011;7004;48.206;16.402;2023-12-20T08:17:03;5.00;;;3.50;;
13868;SDS011;7004;48.206;16.402;2023-12-20T08:19:29;6.57;;;4.20;;
13868;SDS011;7004;48.206;16.402;2023-12-20T08:21:55;7.43;;;4.80;;
13868;SDS011;7004;48.206;16.402;2023-12-20T08:24:21;4.93;;;3.70;;
13868;SDS011;7004;48.206;16.402;2023-12-20T08:26:47;9.63;;;3.77;;
13868;SDS011;7004;48.206;16.402;2023-12-20T08:29:13;7.63;;;4.40;;
13868;SDS011;7004;48.206;16.402;2023-12-20T08:31:39;4.97;;;4.20;;
13868;SDS011;7004;48.206;16.402;2023-12-20T08:34:06;8.10;;;5.33;;
13868;SDS011;7004;48.206;16.402;2023-12-20T08:36:32;9.63;;;4.70;;
13868;SDS011;7004;48.206;16.402;2023-12-20T08:38:58;7.93;;;5.17;;
13868;SDS011;7004;48.206;16.402;2023-12-20T08:41:26;7.73;;;4.87;;
13868;SDS011;7004;48.206;16.402;2023-12-20T08:43:52;10.10;;;6.57;;
13868;SDS011;7004;48.206;16.402;2023-12-20T08:46:18;7.67;;;6.00;;
13868;SDS011;7004;48.206;16.402;2023-12-20T08:48:45;17.50;;;9.10;;
13868;SDS011;7004;48.206;16.402;2023-12-20T08:51:11;11.80;;;7.03;;
13868;SDS011;7004;48.206;16.402;2023-12-20T08:53:38;5.23;;;4.53;;
13868;SDS011;7004;48.206;16.402;2023-12-20T08:56:04;7.03;;;4.00;;
13868;SDS011;7004;48.206;16.402;2023-12-20T08:58:31;4.40;;;3.67;;
13868;SDS011;7004;48.206;16.402;2023-12-20T09:00:58;4.97;;;4.10;;
13868;SDS011;7004;48.206;16.402;2023-12-20T09:03:24;6.13;;;4.30;;
13868;SDS011;7004;48.206;16.402;2023-12-20T09:05:50;5.73;;;3.70;;
13868;SDS011;7004;48.206;16.402;2023-12-20T09:08:17;5.40;;;3.97;;
13868;SDS011;7004;48.206;16.402;2023-12-20T09:10:43;7.00;;;4.10;;
13868;SDS011;7004;48.206;16.402;2023-12-20T09:13:10;7.67;;;4.70;;
13868;SDS011;7004;48.206;16.402;2023-12-20T09:15:36;4.67;;;3.73;;
13868;SDS011;7004;48.206;16.402;2023-12-20T09:18:02;5.87;;;4.17;;
13868;SDS011;7004;48.206;16.402;2023-12-20T09:20:29;4.77;;;3.70;;
13868;SDS011;7004;48.206;16.402;2023-12-20T09:22:55;4.73;;;3.80;;
13868;SDS011;7004;48.206;16.402;2023-12-20T09:25:21;4.90;;;3.70;;
13868;SDS011;7004;48.206;16.402;2023-12-20T09:27:49;3.60;;;3.20;;
13868;SDS011;7004;48.206;16.402;2023-12-20T09:30:15;3.37;;;2.70;;
13868;SDS011;7004;48.206;16.402;2023-12-20T09:32:42;5.17;;;3.20;;
13868;SDS011;7004;48.206;16.402;2023-12-20T09:35:08;3.50;;;2.80;;
13868;SDS011;7004;48.206;16.402;2023-12-20T09:37:34;3.03;;;2.63;;
13868;SDS011;7004;48.206;16.402;2023-12-20T09:40:01;3.67;;;2.43;;
13868;SDS011;7004;48.206;16.402;2023-12-20T09:45:15;2.30;;;2.10;;
13868;SDS011;7004;48.206;16.402;2023-12-20T09:47:45;2.87;;;2.40;;
13868;SDS011;7004;48.206;16.402;2023-12-20T09:50:11;2.20;;;2.00;;
13868;SDS011;7004;48.206;16.402;2023-12-20T09:52:38;2.53;;;2.30;;
13868;SDS011;7004;48.206;16.402;2023-12-20T09:55:05;4.13;;;2.20;;
13868;SDS011;7004;48.206;16.402;2023-12-20T09:57:33;3.63;;;2.57;;
13868;SDS011;7004;48.206;16.402;2023-12-20T09:59:59;2.97;;;2.37;;
13868;SDS011;7004;48.206;16.402;2023-12-20T10:02:26;2.20;;;2.00;;
13868;SDS011;7004;48.206;16.402;2023-12-20T10:04:52;4.50;;;2.60;;
13868;SDS011;7004;48.206;16.402;2023-12-20T10:07:19;5.03;;;2.60;;
13868;SDS011;7004;48.206;16.402;2023-12-20T10:09:47;5.70;;;2.40;;
13868;SDS011;7004;48.206;16.402;2023-12-20T10:12:14;2.70;;;2.20;;
13868;SDS011;7004;48.206;16.402;2023-12-20T10:14:40;2.97;;;2.50;;
13868;SDS011;7004;48.206;16.402;2023-12-20T10:17:06;4.83;;;2.70;;
13868;SDS011;7004;48.206;16.402;2023-12-20T10:19:33;3.93;;;2.60;;
13868;SDS011;7004;48.206;16.402;2023-12-20T10:21:59;3.60;;;2.63;;
13868;SDS011;7004;48.206;16.402;2023-12-20T10:24:28;3.23;;;2.50;;
13868;SDS011;7004;48.206;16.402;2023-12-20T10:27:01;3.03;;;2.43;;
13868;SDS011;7004;48.206;16.402;2023-12-20T10:29:35;3.40;;;2.60;;
13868;SDS011;7004;48.206;16.402;2023-12-20T10:32:22;3.20;;;2.73;;
13868;SDS011;7004;48.206;16.402;2023-12-20T10:34:54;3.10;;;2.80;;
13868;SDS011;7004;48.206;16.402;2023-12-20T10:37:21;3.47;;;2.90;;
13868;SDS011;7004;48.206;16.402;2023-12-20T10:39:51;4.00;;;2.77;;
13868;SDS011;7004;48.206;16.402;2023-12-20T10:42:24;5.03;;;3.17;;
13868;SDS011;7004;48.206;16.402;2023-12-20T10:44:52;5.33;;;3.03;;
13868;SDS011;7004;48.206;16.402;2023-12-20T10:47:19;4.40;;;2.53;;
13868;SDS011;7004;48.206;16.402;2023-12-20T10:49:46;4.13;;;2.60;;
13868;SDS011;7004;48.206;16.402;2023-12-20T10:52:13;3.53;;;3.03;;
13868;SDS011;7004;48.206;16.402;2023-12-20T10:54:39;3.60;;;2.60;;
13868;SDS011;7004;48.206;16.402;2023-12-20T10:57:06;3.63;;;2.63;;
13868;SDS011;7004;48.206;16.402;2023-12-20T10:59:33;3.00;;;2.70;;
13868;SDS011;7004;48.206;16.402;2023-12-20T11:02:06;3.67;;;2.87;;
13868;SDS011;7004;48.206;16.402;2023-12-20T11:04:37;3.30;;;2.67;;
13868;SDS011;7004;48.206;16.402;2023-12-20T11:10:31;4.23;;;2.80;;
13868;SDS011;7004;48.206;16.402;2023-12-20T11:13:55;3.17;;;2.80;;
13868;SDS011;7004;48.206;16.402;2023-12-20T11:16:04;3.30;;;3.00;;
13868;SDS011;7004;48.206;16.402;2023-12-20T11:18:35;3.57;;;2.73;;
13868;SDS011;7004;48.206;16.402;2023-12-20T11:21:01;3.47;;;3.07;;
13868;SDS011;7004;48.206;16.402;2023-12-20T11:23:30;2.97;;;2.50;;
13868;SDS011;7004;48.206;16.402;2023-12-20T11:25:59;4.60;;;3.60;;
13868;SDS011;7004;48.206;16.402;2023-12-20T11:28:28;3.47;;;2.80;;
13868;SDS011;7004;48.206;16.402;2023-12-20T11:30:58;3.63;;;2.77;;
13868;SDS011;7004;48.206;16.402;2023-12-20T11:33:26;3.00;;;2.70;;
13868;SDS011;7004;48.206;16.402;2023-12-20T11:36:01;3.83;;;2.60;;
13868;SDS011;7004;48.206;16.402;2023-12-20T11:38:37;2.70;;;2.50;;
13868;SDS011;7004;48.206;16.402;2023-12-20T11:41:06;3.70;;;2.50;;
13868;SDS011;7004;48.206;16.402;2023-12-20T11:43:36;2.93;;;2.30;;
13868;SDS011;7004;48.206;16.402;2023-12-20T11:46:04;3.73;;;2.67;;
13868;SDS011;7004;48.206;16.402;2023-12-20T11:48:33;2.70;;;2.27;;
13868;SDS011;7004;48.206;16.402;2023-12-20T11:51:08;2.87;;;2.40;;
13868;SDS011;7004;48.206;16.402;2023-12-20T11:53:36;2.63;;;2.30;;
13868;SDS011;7004;48.206;16.402;2023-12-20T11:56:03;2.37;;;1.93;;
13868;SDS011;7004;48.206;16.402;2023-12-20T11:58:32;2.43;;;2.20;;
13868;SDS011;7004;48.206;16.402;2023-12-20T12:00:59;3.63;;;2.30;;
13868;SDS011;7004;48.206;16.402;2023-12-20T12:03:25;2.40;;;2.00;;
13868;SDS011;7004;48.206;16.402;2023-12-20T12:05:52;2.10;;;1.90;;
13868;SDS011;7004;48.206;16.402;2023-12-20T12:08:18;2.40;;;2.10;;
13868;SDS011;7004;48.206;16.402;2023-12-20T12:10:45;3.37;;;2.43;;
13868;SDS011;7004;48.206;16.402;2023-12-20T12:13:11;2.60;;;2.20;;
13868;SDS011;7004;48.206;16.402;2023-12-20T12:15:39;2.40;;;2.20;;
13868;SDS011;7004;48.206;16.402;2023-12-20T12:18:07;2.70;;;2.30;;
13868;SDS011;7004;48.206;16.402;2023-12-20T12:20:34;2.43;;;1.93;;
13868;SDS011;7004;48.206;16.402;2023-12-20T12:23:01;2.67;;;2.00;;
13868;SDS011;7004;48.206;16.402;2023-12-20T12:25:29;2.83;;;2.00;;
13868;SDS011;7004;48.206;16.402;2023-12-20T12:27:58;2.50;;;2.00;;
13868;SDS011;7004;48.206;16.402;2023-12-20T12:30:25;2.60;;;2.07;;
13868;SDS011;7004;48.206;16.402;2023-12-20T12:32:52;2.90;;;2.10;;
13868;SDS011;7004;48.206;16.402;2023-12-20T12:35:18;2.23;;;1.77;;
13868;SDS011;7004;48.206;16.402;2023-12-20T12:37:45;2.43;;;1.80;;
13868;SDS011;7004;48.206;16.402;2023-12-20T12:40:12;2.40;;;2.20;;
13868;SDS011;7004;48.206;16.402;2023-12-20T12:42:41;2.30;;;2.10;;
13868;SDS011;7004;48.206;16.402;2023-12-20T12:45:10;2.43;;;2.13;;
13868;SDS011;7004;48.206;16.402;2023-12-20T12:47:37;1.73;;;1.63;;
13868;SDS011;7004;48.206;16.402;2023-12-20T12:50:04;1.80;;;1.70;;
13868;SDS011;7004;48.206;16.402;2023-12-20T12:52:30;2.60;;;1.93;;
13868;SDS011;7004;48.206;16.402;2023-12-20T12:54:56;1.93;;;1.83;;
13868;SDS011;7004;48.206;16.402;2023-12-20T12:57:22;2.77;;;1.70;;
13868;SDS011;7004;48.206;16.402;2023-12-20T12:59:49;2.00;;;1.80;;
13868;SDS011;7004;48.206;16.402;2023-12-20T13:02:15;2.07;;;1.87;;
13868;SDS011;7004;48.206;16.402;2023-12-20T13:04:42;2.17;;;1.80;;
13868;SDS011;7004;48.206;16.402;2023-12-20T13:07:09;2.20;;;2.00;;
13868;SDS011;7004;48.206;16.402;2023-12-20T13:09:38;2.57;;;2.17;;
13868;SDS011;7004;48.206;16.402;2023-12-20T13:12:05;2.17;;;1.97;;
13868;SDS011;7004;48.206;16.402;2023-12-20T13:14:33;2.37;;;2.17;;
13868;SDS011;7004;48.206;16.402;2023-12-20T13:17:03;1.93;;;1.77;;
13868;SDS011;7004;48.206;16.402;2023-12-20T13:19:32;2.20;;;1.93;;
13868;SDS011;7004;48.206;16.402;2023-12-20T13:21:58;2.47;;;2.27;;
13868;SDS011;7004;48.206;16.402;2023-12-20T13:24:24;2.40;;;2.10;;
13868;SDS011;7004;48.206;16.402;2023-12-20T13:26:50;2.67;;;2.10;;
13868;SDS011;7004;48.206;16.402;2023-12-20T13:29:17;1.63;;;1.53;;
13868;SDS011;7004;48.206;16.402;2023-12-20T13:31:43;6.57;;;2.20;;
13868;SDS011;7004;48.206;16.402;2023-12-20T13:34:09;6.60;;;2.10;;
13868;SDS011;7004;48.206;16.402;2023-12-20T13:36:35;2.73;;;2.10;;
13868;SDS011;7004;48.206;16.402;2023-12-20T13:39:02;1.90;;;1.60;;
13868;SDS011;7004;48.206;16.402;2023-12-20T13:41:30;1.93;;;1.60;;
13868;SDS011;7004;48.206;16.402;2023-12-20T13:43:56;2.07;;;1.87;;
13868;SDS011;7004;48.206;16.402;2023-12-20T13:46:23;3.77;;;2.00;;
13868;SDS011;7004;48.206;16.402;2023-12-20T13:48:49;3.83;;;1.90;;
13868;SDS011;7004;48.206;16.402;2023-12-20T13:51:15;2.47;;;1.83;;
13868;SDS011;7004;48.206;16.402;2023-12-20T13:53:42;2.10;;;1.90;;
13868;SDS011;7004;48.206;16.402;2023-12-20T13:56:08;3.87;;;1.80;;
13868;SDS011;7004;48.206;16.402;2023-12-20T13:58:34;2.97;;;2.10;;
13868;SDS011;7004;48.206;16.402;2023-12-20T14:01:00;2.27;;;1.90;;
13868;SDS011;7004;48.206;16.402;2023-12-20T14:03:26;1.80;;;1.70;;
13868;SDS011;7004;48.206;16.402;2023-12-20T14:05:53;2.00;;;1.80;;
13868;SDS011;7004;48.206;16.402;2023-12-20T14:08:19;3.57;;;1.90;;
13868;SDS011;7004;48.206;16.402;2023-12-20T14:10:45;2.10;;;1.90;;
13868;SDS011;7004;48.206;16.402;2023-12-20T14:13:11;5.03;;;1.93;;
13868;SDS011;7004;48.206;16.402;2023-12-20T14:15:37;2.23;;;1.80;;
13868;SDS011;7004;48.206;16.402;2023-12-20T14:18:04;3.60;;;2.50;;
13868;SDS011;7004;48.206;16.402;2023-12-20T14:20:33;3.87;;;2.00;;
13868;SDS011;7004;48.206;16.402;2023-12-20T14:23:01;2.03;;;1.80;;
13868;SDS011;7004;48.206;16.402;2023-12-20T14:25:28;2.43;;;1.97;;
13868;SDS011;7004;48.206;16.402;2023-12-20T14:27:56;17.87;;;10.83;;
13868;SDS011;7004;48.206;16.402;2023-12-20T14:30:23;16.60;;;9.17;;
13868;SDS011;7004;48.206;16.402;2023-12-20T14:32:49;10.30;;;6.37;;
13868;SDS011;7004;48.206;16.402;2023-12-20T14:35:15;4.90;;;3.50;;
13868;SDS011;7004;48.206;16.402;2023-12-20T14:37:42;2.50;;;2.30;;
13868;SDS011;7004;48.206;16.402;2023-12-20T14:40:09;2.70;;;2.50;;
13868;SDS011;7004;48.206;16.402;2023-12-20T14:42:49;4.43;;;2.43;;